Terminal Aerodrome Forecast
Issued by NWS

Home | Current Version | Previous Version | Graphics & Text | Print | Product List | Glossary On
Versions: 1 2 3 4 5 6 7 8 9 10 11 12 13
000
FTUS43 KGRB 261700
TAFATW
TAF
KATW 261727Z 2618/2718 03009G16KT P6SM SKC
     FM270000 07006KT P6SM FEW080
     FM270500 36007KT P6SM SCT060
     FM271500 03010G17KT P6SM SCT100=

USA.gov is the U.S. government's official web portal to all federal, state and local government web resources and services.